createdAt,value
2022-12-31T00:00:38.149Z,50.20
2022-12-31T00:03:25.040Z,52.00
2022-12-31T00:05:52.340Z,56.30
2022-12-31T00:08:19.657Z,57.50
2022-12-31T00:10:47.155Z,53.50
2022-12-31T00:13:14.773Z,64.80
2022-12-31T00:15:42.956Z,56.30
2022-12-31T00:18:10.813Z,69.00
2022-12-31T00:20:40.715Z,60.70
2022-12-31T00:23:09.658Z,60.80
2022-12-31T00:25:37.506Z,58.10
2022-12-31T00:28:05.376Z,52.00
2022-12-31T00:30:33.985Z,54.00
2022-12-31T00:33:01.092Z,53.20
2022-12-31T00:35:28.448Z,51.30
2022-12-31T00:37:56.113Z,54.50
2022-12-31T00:40:23.160Z,56.00
2022-12-31T00:42:50.426Z,58.60
2022-12-31T00:45:17.875Z,54.90
2022-12-31T00:47:44.917Z,54.70
2022-12-31T00:50:12.003Z,51.50
2022-12-31T00:52:39.528Z,53.60
2022-12-31T00:55:07.498Z,55.60
2022-12-31T00:57:34.671Z,49.60
2022-12-31T01:00:01.897Z,46.60
2022-12-31T01:02:29.660Z,47.70
2022-12-31T01:04:57.325Z,49.10
2022-12-31T01:07:24.790Z,48.10
2022-12-31T01:09:53.469Z,53.60
2022-12-31T01:12:20.871Z,58.90
2022-12-31T01:14:48.283Z,58.80
2022-12-31T01:17:16.975Z,57.70
2022-12-31T01:19:44.245Z,58.50
2022-12-31T01:22:11.799Z,58.10
2022-12-31T01:24:39.066Z,60.50
2022-12-31T01:27:06.453Z,61.40
2022-12-31T01:29:33.819Z,58.80
2022-12-31T01:32:00.922Z,54.80
2022-12-31T01:34:28.255Z,56.50
2022-12-31T01:36:55.924Z,59.10
2022-12-31T01:39:23.314Z,61.10
2022-12-31T01:41:50.526Z,59.30
2022-12-31T01:44:38.258Z,62.30
2022-12-31T01:47:10.936Z,62.40
2022-12-31T01:49:47.103Z,61.70
2022-12-31T01:52:36.471Z,60.00
2022-12-31T01:55:19.874Z,60.80
2022-12-31T01:57:51.411Z,64.40
2022-12-31T02:00:19.208Z,61.00
2022-12-31T02:02:46.545Z,54.70
2022-12-31T02:05:47.827Z,56.00
2022-12-31T02:08:16.310Z,58.10
2022-12-31T02:10:43.766Z,57.10
2022-12-31T02:13:11.130Z,58.90
2022-12-31T02:15:59.490Z,57.80
2022-12-31T02:18:35.737Z,51.80
2022-12-31T02:21:26.441Z,52.40
2022-12-31T02:24:18.469Z,56.90
2022-12-31T02:27:01.498Z,65.40
2022-12-31T02:29:34.599Z,59.50
2022-12-31T02:32:16.211Z,58.90
2022-12-31T02:34:54.783Z,53.90
2022-12-31T02:37:24.462Z,52.70
2022-12-31T02:39:52.036Z,51.10
2022-12-31T02:42:19.107Z,54.80
2022-12-31T02:44:46.671Z,61.20
2022-12-31T02:47:21.500Z,53.50
2022-12-31T02:49:54.596Z,50.70
2022-12-31T02:52:34.056Z,50.30
2022-12-31T02:55:13.378Z,60.70
2022-12-31T02:58:07.263Z,59.70
2022-12-31T03:01:08.293Z,51.30
2022-12-31T03:03:37.205Z,47.90
2022-12-31T03:06:07.674Z,52.60
2022-12-31T03:08:54.928Z,53.90
2022-12-31T03:11:41.230Z,60.40
2022-12-31T03:14:08.896Z,55.10
2022-12-31T03:16:41.369Z,65.50
2022-12-31T03:19:27.181Z,59.20
2022-12-31T03:22:13.154Z,58.80
2022-12-31T03:24:59.362Z,57.40
2022-12-31T03:27:26.698Z,57.90
2022-12-31T03:29:53.925Z,74.20
2022-12-31T03:32:21.005Z,68.50
2022-12-31T03:34:48.640Z,68.50
2022-12-31T03:37:15.604Z,70.50
2022-12-31T03:39:42.776Z,51.60
2022-12-31T03:42:10.318Z,70.20
2022-12-31T03:44:37.368Z,61.10
2022-12-31T03:47:05.027Z,63.80
2022-12-31T03:49:32.487Z,70.70
2022-12-31T03:51:59.841Z,78.40
2022-12-31T03:54:27.197Z,68.20
2022-12-31T03:56:59.941Z,69.60
2022-12-31T03:59:27.711Z,67.60
2022-12-31T04:01:55.238Z,68.90
2022-12-31T04:04:22.663Z,67.20
2022-12-31T04:06:50.116Z,77.00
2022-12-31T04:09:17.574Z,66.90
2022-12-31T04:11:44.945Z,75.20
2022-12-31T04:14:12.128Z,66.50
2022-12-31T04:16:39.574Z,69.70
2022-12-31T04:19:07.610Z,65.60
2022-12-31T04:21:35.317Z,63.60
2022-12-31T04:24:03.252Z,68.20
2022-12-31T04:26:30.701Z,67.60
2022-12-31T04:28:58.677Z,53.70
2022-12-31T04:31:26.812Z,61.30
2022-12-31T04:33:54.199Z,63.60
2022-12-31T04:36:21.455Z,65.10
2022-12-31T04:38:48.716Z,64.20
2022-12-31T04:41:22.303Z,58.20
2022-12-31T04:43:55.531Z,61.10
2022-12-31T04:46:28.407Z,62.00
2022-12-31T04:48:56.050Z,69.40
2022-12-31T04:51:24.340Z,65.90
2022-12-31T04:53:51.925Z,63.50
2022-12-31T04:56:19.341Z,66.70
2022-12-31T04:58:46.901Z,58.20
2022-12-31T05:01:18.151Z,60.90
2022-12-31T05:03:46.054Z,60.20
2022-12-31T05:06:19.719Z,57.80
2022-12-31T05:08:48.127Z,63.00
2022-12-31T05:11:15.705Z,60.20
2022-12-31T05:13:43.731Z,56.20
2022-12-31T05:16:11.548Z,63.50
2022-12-31T05:18:38.876Z,57.20
2022-12-31T05:21:06.496Z,57.90
2022-12-31T05:23:34.691Z,59.00
2022-12-31T05:26:02.964Z,57.10
2022-12-31T05:28:30.427Z,61.10
2022-12-31T05:30:58.304Z,52.60
2022-12-31T05:33:25.761Z,54.70
2022-12-31T05:35:53.066Z,69.60
2022-12-31T05:38:22.303Z,49.60
2022-12-31T05:40:49.564Z,52.20
2022-12-31T05:43:17.217Z,59.10
2022-12-31T05:45:44.550Z,58.30
2022-12-31T05:48:12.035Z,63.60
2022-12-31T05:50:39.384Z,55.70
2022-12-31T05:53:08.582Z,50.80
2022-12-31T05:55:35.653Z,55.10
2022-12-31T05:58:02.682Z,53.10
2022-12-31T06:00:30.139Z,62.80
2022-12-31T06:02:57.298Z,55.70
2022-12-31T06:05:26.497Z,58.10
2022-12-31T06:07:54.479Z,63.10
2022-12-31T06:10:21.917Z,58.20
2022-12-31T06:12:49.066Z,58.70
2022-12-31T06:15:16.625Z,63.10
2022-12-31T06:17:43.794Z,57.10
2022-12-31T06:20:13.436Z,62.00
2022-12-31T06:22:40.942Z,58.30
2022-12-31T06:25:08.609Z,55.50
2022-12-31T06:27:35.983Z,49.20
2022-12-31T06:30:04.041Z,52.80
2022-12-31T06:32:31.313Z,51.00
2022-12-31T06:34:58.747Z,51.40
2022-12-31T06:37:26.000Z,47.10
2022-12-31T06:39:53.247Z,48.50
2022-12-31T06:42:20.506Z,52.30
2022-12-31T06:44:48.057Z,52.20
2022-12-31T06:47:15.277Z,51.80
2022-12-31T06:49:42.360Z,49.30
2022-12-31T06:52:10.739Z,53.70
2022-12-31T06:54:38.307Z,54.60
2022-12-31T06:57:06.070Z,50.10
2022-12-31T06:59:33.933Z,51.30
2022-12-31T07:02:01.282Z,56.40
2022-12-31T07:04:40.624Z,48.70
2022-12-31T07:07:53.858Z,50.10
2022-12-31T07:10:43.742Z,41.60
2022-12-31T07:13:31.584Z,47.50
2022-12-31T07:16:20.300Z,47.30
2022-12-31T07:19:17.300Z,48.20
2022-12-31T07:21:45.470Z,45.40
2022-12-31T07:24:14.039Z,51.00
2022-12-31T07:27:08.128Z,43.40
2022-12-31T07:29:57.501Z,48.20
2022-12-31T07:33:02.943Z,44.70
2022-12-31T07:35:56.418Z,49.30
2022-12-31T07:38:54.387Z,46.60
2022-12-31T07:41:29.013Z,50.30
2022-12-31T07:44:25.959Z,49.20
2022-12-31T07:46:59.843Z,53.20
2022-12-31T07:49:29.612Z,49.00
2022-12-31T07:51:58.368Z,48.20
2022-12-31T07:54:25.837Z,53.00
2022-12-31T07:56:53.286Z,44.00
2022-12-31T07:59:36.081Z,40.70
2022-12-31T08:02:15.659Z,49.00
2022-12-31T08:05:02.054Z,42.80
2022-12-31T08:07:32.678Z,46.40
2022-12-31T08:10:12.562Z,42.90
2022-12-31T08:12:45.537Z,47.80
2022-12-31T08:15:18.492Z,45.70
2022-12-31T08:17:46.271Z,47.30
2022-12-31T08:20:16.743Z,48.90
2022-12-31T08:23:14.671Z,45.90
2022-12-31T08:26:01.071Z,42.60
2022-12-31T08:29:00.885Z,43.40
2022-12-31T08:31:35.363Z,46.70
2022-12-31T08:34:23.246Z,44.50
2022-12-31T08:37:10.978Z,44.50
2022-12-31T08:39:44.686Z,42.60
2022-12-31T08:42:29.756Z,44.80
2022-12-31T08:45:07.661Z,43.40
2022-12-31T08:48:02.709Z,38.30
2022-12-31T08:50:30.852Z,41.40
2022-12-31T08:52:58.821Z,38.90
2022-12-31T08:55:26.889Z,46.80
2022-12-31T08:58:22.198Z,41.40
2022-12-31T09:00:56.758Z,41.80
2022-12-31T09:04:02.637Z,44.20
2022-12-31T09:06:43.652Z,48.00
2022-12-31T09:09:39.783Z,46.20
2022-12-31T09:12:25.572Z,42.50
2022-12-31T09:15:10.747Z,41.80
2022-12-31T09:17:41.375Z,44.10
2022-12-31T09:20:17.853Z,46.60
2022-12-31T09:22:45.716Z,43.40
2022-12-31T09:25:17.293Z,47.50
2022-12-31T09:27:50.569Z,43.60
2022-12-31T09:30:18.753Z,46.00
2022-12-31T09:33:01.544Z,38.20
2022-12-31T09:35:49.077Z,39.10
2022-12-31T09:38:29.457Z,38.40
2022-12-31T09:41:34.284Z,38.90
2022-12-31T09:44:01.769Z,40.00
2022-12-31T09:47:06.936Z,39.10
2022-12-31T09:49:46.014Z,41.20
2022-12-31T09:52:56.384Z,45.40
2022-12-31T09:55:49.042Z,39.30
2022-12-31T09:58:37.892Z,41.50
2022-12-31T10:01:30.407Z,42.60
2022-12-31T10:04:03.530Z,37.60
2022-12-31T10:07:28.851Z,40.50
2022-12-31T10:10:05.599Z,34.90
2022-12-31T10:12:52.025Z,36.90
2022-12-31T10:15:19.683Z,40.00
2022-12-31T10:18:04.313Z,33.90
2022-12-31T10:20:46.248Z,38.10
2022-12-31T10:23:16.671Z,32.40
2022-12-31T10:25:53.480Z,36.10
2022-12-31T10:28:35.760Z,34.10
2022-12-31T10:31:44.806Z,37.40
2022-12-31T10:34:25.150Z,31.30
2022-12-31T10:37:04.078Z,34.80
2022-12-31T10:40:00.050Z,35.00
2022-12-31T10:42:44.561Z,32.40
2022-12-31T10:45:23.695Z,29.80
2022-12-31T10:48:16.558Z,32.70
2022-12-31T10:50:53.736Z,31.40
2022-12-31T10:53:39.421Z,32.10
2022-12-31T10:56:21.524Z,29.80
2022-12-31T10:58:54.302Z,30.50
2022-12-31T11:01:32.554Z,32.10
2022-12-31T11:04:02.738Z,34.70
2022-12-31T11:07:01.545Z,33.40
2022-12-31T11:10:00.237Z,30.70
2022-12-31T11:12:49.393Z,36.90
2022-12-31T11:15:50.610Z,36.90
2022-12-31T11:18:36.731Z,35.60
2022-12-31T11:21:28.496Z,37.20
2022-12-31T11:24:33.616Z,32.70
2022-12-31T11:27:18.075Z,32.10
2022-12-31T11:29:58.935Z,31.20
2022-12-31T11:32:28.749Z,31.90
2022-12-31T11:35:18.224Z,28.80
2022-12-31T11:38:03.403Z,32.90
2022-12-31T11:40:43.490Z,34.50
2022-12-31T11:43:17.801Z,33.90
2022-12-31T11:45:50.700Z,37.20
2022-12-31T11:48:37.017Z,33.10
2022-12-31T11:51:29.300Z,39.50
2022-12-31T11:54:34.235Z,36.70
2022-12-31T11:57:37.275Z,32.10
2022-12-31T12:00:18.355Z,35.10
2022-12-31T12:02:53.491Z,35.50
2022-12-31T12:05:24.590Z,35.30
2022-12-31T12:07:53.071Z,33.50
2022-12-31T12:10:37.178Z,38.00
2022-12-31T12:13:12.977Z,32.40
2022-12-31T12:15:44.815Z,32.50
2022-12-31T12:18:31.033Z,33.10
2022-12-31T12:21:12.524Z,33.30
2022-12-31T12:23:42.033Z,35.60
2022-12-31T12:26:32.629Z,33.00
2022-12-31T12:29:10.110Z,30.50
2022-12-31T12:31:38.662Z,31.40
2022-12-31T12:34:20.910Z,32.10
2022-12-31T12:36:48.476Z,31.70
2022-12-31T12:39:24.017Z,30.90
2022-12-31T12:42:07.451Z,32.90
2022-12-31T12:44:35.424Z,36.90
2022-12-31T12:47:06.502Z,31.90
2022-12-31T12:49:54.103Z,32.00
2022-12-31T12:52:32.312Z,31.20
2022-12-31T12:55:11.853Z,31.70
2022-12-31T12:57:52.617Z,32.00
2022-12-31T13:01:04.252Z,31.30
2022-12-31T13:03:31.979Z,34.50
2022-12-31T13:06:04.766Z,34.60
2022-12-31T13:09:18.709Z,32.80
2022-12-31T13:11:52.312Z,31.70
2022-12-31T13:14:39.126Z,31.60
2022-12-31T13:17:27.778Z,31.80
2022-12-31T13:20:13.875Z,31.70
2022-12-31T13:22:47.784Z,32.10
2022-12-31T13:25:29.889Z,32.10
2022-12-31T13:28:04.729Z,31.10
2022-12-31T13:30:51.956Z,33.50
2022-12-31T13:33:26.662Z,31.00
2022-12-31T13:35:56.179Z,30.60
2022-12-31T13:38:33.677Z,30.80
2022-12-31T13:41:08.811Z,30.70
2022-12-31T13:44:17.738Z,28.30
2022-12-31T13:46:51.037Z,30.40
2022-12-31T13:49:43.148Z,31.20
2022-12-31T13:52:35.410Z,32.60
2022-12-31T13:55:27.579Z,31.20
2022-12-31T14:00:31.062Z,30.60
2022-12-31T14:02:58.147Z,29.60
2022-12-31T14:05:42.062Z,28.80
2022-12-31T14:08:10.850Z,30.20
2022-12-31T14:10:57.762Z,30.40
2022-12-31T14:13:34.762Z,32.30
2022-12-31T14:16:31.870Z,29.00
2022-12-31T14:19:20.142Z,32.30
2022-12-31T14:22:33.988Z,30.20
2022-12-31T14:25:10.050Z,29.00
2022-12-31T14:27:42.630Z,28.50
2022-12-31T14:30:16.144Z,30.60
2022-12-31T14:33:01.712Z,30.20
2022-12-31T14:35:48.942Z,28.90
2022-12-31T14:38:37.180Z,33.90
2022-12-31T14:41:07.919Z,29.20
2022-12-31T14:44:09.676Z,29.20
2022-12-31T14:47:05.606Z,34.60
2022-12-31T14:49:45.349Z,36.50
2022-12-31T14:52:16.196Z,32.50
2022-12-31T14:54:43.749Z,31.20
2022-12-31T14:57:25.028Z,31.10
2022-12-31T15:00:00.583Z,35.60
2022-12-31T15:02:34.099Z,32.80
2022-12-31T15:05:12.508Z,33.90
2022-12-31T15:07:48.043Z,31.90
2022-12-31T15:10:18.988Z,31.80
2022-12-31T15:12:56.068Z,35.80
2022-12-31T15:15:23.726Z,44.90
2022-12-31T15:18:03.372Z,40.00
2022-12-31T15:20:39.452Z,39.50
2022-12-31T15:23:25.039Z,37.20
2022-12-31T15:26:01.084Z,39.30
2022-12-31T15:28:39.853Z,39.30
2022-12-31T15:31:18.798Z,42.40
2022-12-31T15:34:06.097Z,37.40
2022-12-31T15:36:38.095Z,38.60
2022-12-31T15:39:11.859Z,40.80
2022-12-31T15:42:10.457Z,47.30
2022-12-31T15:44:31.004Z,39.20
2022-12-31T15:47:21.830Z,50.80
2022-12-31T15:49:50.494Z,43.60
2022-12-31T15:52:26.150Z,40.60
2022-12-31T15:54:57.604Z,41.30
2022-12-31T15:57:39.237Z,38.60
2022-12-31T16:00:24.466Z,42.70
2022-12-31T16:02:55.528Z,39.00
2022-12-31T16:05:27.379Z,39.60
2022-12-31T16:07:57.181Z,37.80
2022-12-31T16:10:30.666Z,41.30
2022-12-31T16:12:59.288Z,41.70
2022-12-31T16:15:31.147Z,43.60
2022-12-31T16:18:09.548Z,44.80
2022-12-31T16:20:48.187Z,43.10
2022-12-31T16:23:22.688Z,41.50
2022-12-31T16:25:53.036Z,42.90
2022-12-31T16:28:25.879Z,45.20
2022-12-31T16:31:16.808Z,45.60
2022-12-31T16:33:45.025Z,46.30
2022-12-31T16:36:30.868Z,46.50
2022-12-31T16:39:24.043Z,49.90
2022-12-31T16:41:53.224Z,51.00
2022-12-31T16:44:28.676Z,52.90
2022-12-31T16:46:59.404Z,47.60
2022-12-31T16:49:30.148Z,41.60
2022-12-31T16:52:30.360Z,41.30
2022-12-31T16:54:58.436Z,44.90
2022-12-31T16:57:29.988Z,43.80
2022-12-31T17:00:02.627Z,40.00
2022-12-31T17:03:29.956Z,38.60
2022-12-31T17:06:57.091Z,50.90
2022-12-31T17:14:21.564Z,131.30
2022-12-31T17:21:09.379Z,90.80
2022-12-31T17:24:41.593Z,83.50
2022-12-31T17:27:29.357Z,66.30
2022-12-31T17:30:58.947Z,67.30
2022-12-31T17:34:29.933Z,48.40
2022-12-31T17:38:06.038Z,53.60
2022-12-31T17:41:41.727Z,51.90
2022-12-31T17:44:17.832Z,43.10
2022-12-31T17:46:45.396Z,53.90
2022-12-31T17:49:16.245Z,52.70
2022-12-31T17:51:47.567Z,56.80
2022-12-31T17:56:44.653Z,60.10
2022-12-31T17:59:21.387Z,53.60
2022-12-31T18:01:49.097Z,54.90
2022-12-31T18:04:20.908Z,54.70
2022-12-31T18:06:47.965Z,56.10
2022-12-31T18:09:15.997Z,53.60
2022-12-31T18:11:44.980Z,50.30
2022-12-31T18:14:15.537Z,56.10
2022-12-31T18:16:43.015Z,46.10
2022-12-31T18:19:37.894Z,46.90
2022-12-31T18:22:02.146Z,46.00
2022-12-31T18:24:29.744Z,44.80
2022-12-31T18:26:56.846Z,49.70
2022-12-31T18:29:24.292Z,43.10
2022-12-31T18:31:51.898Z,45.00
2022-12-31T18:34:19.217Z,44.20
2022-12-31T18:36:47.501Z,51.80
2022-12-31T18:39:14.751Z,42.80
2022-12-31T18:41:49.167Z,46.60
2022-12-31T18:44:17.269Z,45.10
2022-12-31T18:46:44.332Z,45.90
2022-12-31T18:49:11.659Z,52.40
2022-12-31T18:51:39.113Z,44.90
2022-12-31T18:54:09.018Z,41.90
2022-12-31T18:56:39.513Z,43.30
2022-12-31T18:59:09.206Z,44.20
2022-12-31T19:01:40.872Z,50.40
2022-12-31T19:06:42.289Z,39.30
2022-12-31T19:09:30.725Z,41.70
2022-12-31T19:11:57.680Z,43.90
2022-12-31T19:14:26.161Z,49.20
2022-12-31T19:16:54.181Z,38.60
2022-12-31T19:19:21.869Z,46.00
2022-12-31T19:21:49.103Z,50.40
2022-12-31T19:24:21.193Z,45.40
2022-12-31T19:26:49.479Z,46.10
2022-12-31T19:29:19.609Z,39.10
2022-12-31T19:31:47.593Z,43.30
2022-12-31T19:34:15.343Z,42.30
2022-12-31T19:36:44.255Z,42.20
2022-12-31T19:39:17.343Z,42.50
2022-12-31T19:41:51.472Z,41.90
2022-12-31T19:44:23.519Z,40.50
2022-12-31T19:46:51.167Z,42.50
2022-12-31T19:49:18.321Z,48.80
2022-12-31T19:51:45.371Z,42.60
2022-12-31T19:54:13.197Z,39.10
2022-12-31T19:56:41.034Z,40.90
2022-12-31T19:59:09.930Z,42.20
2022-12-31T20:01:37.787Z,45.70
2022-12-31T20:04:05.672Z,45.90
2022-12-31T20:06:32.991Z,38.20
2022-12-31T20:09:02.360Z,40.90
2022-12-31T20:11:29.405Z,44.60
2022-12-31T20:13:56.789Z,38.80
2022-12-31T20:16:31.024Z,43.50
2022-12-31T20:18:58.096Z,42.40
2022-12-31T20:21:28.587Z,40.80
2022-12-31T20:23:56.194Z,39.70
2022-12-31T20:26:24.797Z,37.20
2022-12-31T20:28:52.904Z,41.20
2022-12-31T20:31:23.968Z,35.70
2022-12-31T20:33:53.574Z,38.10
2022-12-31T20:36:21.900Z,36.20
2022-12-31T20:38:49.801Z,35.40
2022-12-31T20:41:20.234Z,37.70
2022-12-31T20:43:48.318Z,38.40
2022-12-31T20:46:19.071Z,36.10
2022-12-31T20:48:48.225Z,31.90
2022-12-31T20:51:16.744Z,35.50
2022-12-31T20:53:50.467Z,33.30
2022-12-31T20:56:18.496Z,33.80
2022-12-31T20:58:45.852Z,34.30
2022-12-31T21:01:16.852Z,37.70
2022-12-31T21:06:35.130Z,32.80
2022-12-31T21:09:05.352Z,35.00
2022-12-31T21:11:51.187Z,36.20
2022-12-31T21:14:19.340Z,42.00
2022-12-31T21:16:46.817Z,40.30
2022-12-31T21:19:14.122Z,43.70
2022-12-31T21:21:41.611Z,45.20
2022-12-31T21:24:09.266Z,39.30
2022-12-31T21:26:36.540Z,36.70
2022-12-31T21:29:03.991Z,40.50
2022-12-31T21:31:31.281Z,37.10
2022-12-31T21:33:58.970Z,39.60
2022-12-31T21:36:26.268Z,42.70
2022-12-31T21:38:53.311Z,45.90
2022-12-31T21:41:39.487Z,37.90
2022-12-31T21:44:07.161Z,43.60
2022-12-31T21:46:34.863Z,39.50
2022-12-31T21:49:02.501Z,42.80
2022-12-31T21:51:30.248Z,43.90
2022-12-31T21:53:57.849Z,41.00
2022-12-31T21:56:25.266Z,39.90
2022-12-31T21:59:16.513Z,39.20
2022-12-31T22:02:02.606Z,50.30
2022-12-31T22:07:17.709Z,37.50
2022-12-31T22:09:45.127Z,39.20
2022-12-31T22:12:12.431Z,36.80
2022-12-31T22:15:15.547Z,37.30
2022-12-31T22:17:27.911Z,41.50
2022-12-31T22:22:44.730Z,40.70
2022-12-31T22:25:12.779Z,35.80
2022-12-31T22:27:40.037Z,39.80
2022-12-31T22:30:08.426Z,34.50
2022-12-31T22:32:35.586Z,37.70
2022-12-31T22:35:03.338Z,39.30
2022-12-31T22:40:17.965Z,46.00
2022-12-31T22:42:45.370Z,54.20
2022-12-31T22:45:12.620Z,75.80
2022-12-31T22:47:40.161Z,60.80
2022-12-31T22:50:08.054Z,58.70
2022-12-31T22:52:35.049Z,54.90
2022-12-31T22:55:02.469Z,64.40
2022-12-31T22:57:29.815Z,73.40
2022-12-31T22:59:57.161Z,64.50
2022-12-31T23:02:24.410Z,63.50
2022-12-31T23:04:51.981Z,58.90
2022-12-31T23:07:19.530Z,68.60
2022-12-31T23:10:05.641Z,62.60
2022-12-31T23:12:33.222Z,57.50
2022-12-31T23:15:19.305Z,56.60
2022-12-31T23:18:05.295Z,51.00
2022-12-31T23:20:50.994Z,51.90
2022-12-31T23:23:18.321Z,48.60
2022-12-31T23:25:48.029Z,53.00
2022-12-31T23:28:18.355Z,50.50
2022-12-31T23:30:46.013Z,45.30
2022-12-31T23:33:17.195Z,42.00
2022-12-31T23:35:44.825Z,44.10
2022-12-31T23:38:13.234Z,41.90
2022-12-31T23:40:40.559Z,39.50
2022-12-31T23:43:08.634Z,40.10
2022-12-31T23:45:36.125Z,44.80
2022-12-31T23:48:04.331Z,48.00
2022-12-31T23:50:32.242Z,47.30
2022-12-31T23:52:59.691Z,58.60
2022-12-31T23:55:27.046Z,61.20
2022-12-31T23:57:54.946Z,58.50
